Aérodrome :
LOGIN :

S'inscrire | Disclaimer

   EN    FR    IT 

 










Légende :    VFR   VFR Marginal   IFR   IFR Intensif   IFR Très Intensif
Visi : 
Plafond : 
>= 8 km
>= 3000ft
5 à 8 km
1000 à 3000 ft
1500m à 5 km
500 à 1000 ft
800 à 1500m
200 à 500 ft
< 800m
< 200 ft
Symboles :   Orages  Brouillard  Fortes neiges  Fortes précipitations  Vent > 20 kt
SIGMETs :   Divers  Orages  Givrage  Turbulence  Onde Orograph.  Cendres Volcan.






- Altitude de l'aérodrome : 13 ft
- Code IATA : OST


EBOS - Oostend bruges Int.

DERNIER METAR :
  • 152020Z 17008KT 9999 FEW025 05/02 Q1004 NOSIG

METARs EXPIRÉS :
  • 151950Z 17008KT 9999 FEW025 05/02 Q1004 NOSIG
  • 151920Z 18009KT 9999 FEW025 05/03 Q1004 NOSIG
  • 151850Z 18010KT 9999 FEW025 05/03 Q1003 NOSIG
  • 151820Z 18010KT 9999 FEW025 06/03 Q1003 NOSIG
  • 151750Z 19011KT 9999 FEW018 SCT040 06/03 Q1003 NOSIG

TAF TAF EBOS
Valide du 15 à 18h jusqu'au 17 à 00h UTC


151710Z 1518/1624 18013KT 9999 FEW020
BECMG 1618/1620 BKN011
BECMG 1620/1623 10007KT
PROB40
TEMPO 1620/1624 4000 RA RADZ BKN007



MET'MAP, la Météo Aéronautique d'un coup d'oeil ! - Copyright ORBIFLY Décembre 2007 - Disclaimer

ORBIFLY MET'MAP TEAM :

Programmation & Développement : Alexandra Zaïnal
Sur une idée originale de : Baudouin d'Aumeries
Assistance à la programmation : Marc-Olivier Méhu
Soutien technique & logistique : Manuel Goepfert

Contact : metmap@orbifly.com




SOURCES & CREDITS :

   NOAA